createdAt,value
2018-06-23T00:00:40.860Z,68.29
2018-06-23T00:01:40.859Z,68.29
2018-06-23T00:02:40.885Z,68.00
2018-06-23T00:03:40.892Z,68.86
2018-06-23T00:04:40.876Z,68.86
2018-06-23T00:05:40.909Z,68.38
2018-06-23T00:06:40.824Z,68.38
2018-06-23T00:07:40.969Z,68.51
2018-06-23T00:08:40.849Z,67.81
2018-06-23T00:09:40.821Z,68.41
2018-06-23T00:10:40.821Z,67.08
2018-06-23T00:11:40.889Z,67.14
2018-06-23T00:12:40.964Z,68.19
2018-06-23T00:13:40.906Z,68.00
2018-06-23T00:14:40.860Z,68.29
2018-06-23T00:15:40.853Z,67.62
2018-06-23T00:16:40.904Z,68.26
2018-06-23T00:17:40.871Z,68.57
2018-06-23T00:18:40.926Z,68.41
2018-06-23T00:19:40.851Z,67.18
2018-06-23T00:20:40.849Z,67.18
2018-06-23T00:21:40.846Z,67.43
2018-06-23T00:22:40.848Z,68.38
2018-06-23T00:23:40.884Z,68.38
2018-06-23T00:24:40.895Z,67.27
2018-06-23T00:25:40.865Z,66.70
2018-06-23T00:26:40.920Z,66.60
2018-06-23T00:27:40.861Z,67.71
2018-06-23T00:28:40.882Z,68.13
2018-06-23T00:29:40.925Z,66.79
2018-06-23T00:30:40.882Z,66.70
2018-06-23T00:31:40.910Z,66.60
2018-06-23T00:32:40.915Z,67.36
2018-06-23T00:33:40.923Z,66.89
2018-06-23T00:34:40.960Z,66.70
2018-06-23T00:35:40.953Z,67.36
2018-06-23T00:36:40.912Z,67.52
2018-06-23T00:37:40.891Z,67.52
2018-06-23T00:38:40.984Z,67.75
2018-06-23T00:39:40.920Z,67.27
2018-06-23T00:40:40.979Z,66.31
2018-06-23T00:41:40.953Z,66.79
2018-06-23T00:42:40.953Z,66.79
2018-06-23T00:43:40.897Z,66.13
2018-06-23T00:44:40.909Z,66.79
2018-06-23T00:45:40.970Z,66.13
2018-06-23T00:46:40.949Z,66.89
2018-06-23T00:47:40.927Z,66.70
2018-06-23T00:48:40.939Z,66.66
2018-06-23T00:49:40.941Z,68.38
2018-06-23T00:50:40.964Z,68.04
2018-06-23T00:51:40.946Z,67.65
2018-06-23T00:52:40.957Z,67.18
2018-06-23T00:53:40.956Z,67.27
2018-06-23T00:54:40.925Z,67.08
2018-06-23T00:55:40.966Z,66.60
2018-06-23T00:56:40.966Z,66.79
2018-06-23T00:57:40.964Z,66.79
2018-06-23T00:58:40.972Z,67.36
2018-06-23T00:59:40.967Z,67.65
2018-06-23T01:00:41.003Z,66.99
2018-06-23T01:01:40.974Z,66.99
2018-06-23T01:02:40.945Z,66.85
2018-06-23T01:03:40.939Z,68.04
2018-06-23T01:04:40.946Z,67.36
2018-06-23T01:05:41.000Z,67.08
2018-06-23T01:06:40.962Z,68.48
2018-06-23T01:07:40.998Z,68.41
2018-06-23T01:08:41.012Z,68.19
2018-06-23T01:09:41.024Z,68.67
2018-06-23T01:10:40.987Z,69.05
2018-06-23T01:11:41.006Z,69.15
2018-06-23T01:12:40.962Z,68.96
2018-06-23T01:13:40.989Z,69.34
2018-06-23T01:14:40.982Z,68.61
2018-06-23T01:15:41.024Z,68.67
2018-06-23T01:16:40.993Z,68.67
2018-06-23T01:17:41.034Z,68.19
2018-06-23T01:18:41.090Z,67.75
2018-06-23T01:19:40.979Z,66.99
2018-06-23T01:20:41.033Z,67.18
2018-06-23T01:21:40.988Z,68.38
2018-06-23T01:22:47.774Z,68.19
2018-06-23T01:23:41.022Z,68.48
2018-06-23T01:24:41.019Z,68.57
2018-06-23T01:25:41.017Z,68.48
2018-06-23T01:26:41.004Z,68.57
2018-06-23T01:27:41.028Z,68.29
2018-06-23T01:28:40.998Z,67.65
2018-06-23T01:29:41.068Z,67.46
2018-06-23T01:30:41.019Z,67.43
2018-06-23T01:31:41.083Z,68.29
2018-06-23T01:32:41.081Z,68.38
2018-06-23T01:33:41.072Z,68.76
2018-06-23T01:34:41.089Z,68.76
2018-06-23T01:35:41.059Z,68.48
2018-06-23T01:36:41.065Z,69.43
2018-06-23T01:37:41.010Z,68.10
2018-06-23T01:38:41.018Z,68.86
2018-06-23T01:39:41.061Z,68.29
2018-06-23T01:40:41.019Z,68.29
2018-06-23T01:41:41.022Z,68.38
2018-06-23T01:42:41.046Z,68.76
2018-06-23T01:43:41.067Z,68.96
2018-06-23T01:44:41.077Z,69.40
2018-06-23T01:45:41.077Z,69.34
2018-06-23T01:46:41.033Z,69.59
2018-06-23T01:47:41.030Z,69.91
2018-06-23T01:48:41.039Z,69.15
2018-06-23T01:49:41.037Z,68.38
2018-06-23T01:50:41.079Z,68.38
2018-06-23T01:51:41.077Z,68.54
2018-06-23T01:52:41.065Z,68.54
2018-06-23T01:53:41.050Z,68.57
2018-06-23T01:54:41.051Z,68.48
2018-06-23T01:55:41.056Z,68.48
2018-06-23T01:56:41.053Z,67.91
2018-06-23T01:57:41.140Z,68.29
2018-06-23T01:58:41.087Z,68.38
2018-06-23T01:59:41.054Z,67.91
2018-06-23T02:00:41.096Z,67.91
2018-06-23T02:01:41.062Z,68.38
2018-06-23T02:02:41.062Z,68.29
2018-06-23T02:03:41.079Z,68.57
2018-06-23T02:04:41.072Z,67.91
2018-06-23T02:05:41.067Z,67.36
2018-06-23T02:06:41.112Z,67.43
2018-06-23T02:07:41.101Z,68.10
2018-06-23T02:08:41.074Z,68.10
2018-06-23T02:09:41.096Z,68.86
2018-06-23T02:10:41.076Z,68.29
2018-06-23T02:11:41.094Z,68.38
2018-06-23T02:12:41.089Z,68.38
2018-06-23T02:13:41.097Z,68.10
2018-06-23T02:14:41.134Z,68.67
2018-06-23T02:15:41.096Z,68.32
2018-06-23T02:16:41.090Z,68.29
2018-06-23T02:17:41.110Z,68.57
2018-06-23T02:18:41.125Z,68.38
2018-06-23T02:19:41.144Z,68.92
2018-06-23T02:20:41.155Z,69.68
2018-06-23T02:21:41.103Z,69.31
2018-06-23T02:22:41.134Z,68.86
2018-06-23T02:23:41.105Z,68.29
2018-06-23T02:24:41.128Z,68.48
2018-06-23T02:25:41.146Z,68.73
2018-06-23T02:26:41.182Z,69.62
2018-06-23T02:27:41.120Z,68.76
2018-06-23T02:28:41.149Z,69.68
2018-06-23T02:29:41.113Z,70.07
2018-06-23T02:30:41.163Z,70.07
2018-06-23T02:31:41.119Z,70.16
2018-06-23T02:32:41.157Z,69.59
2018-06-23T02:33:41.146Z,69.49
2018-06-23T02:34:41.119Z,69.91
2018-06-23T02:35:41.165Z,69.49
2018-06-23T02:36:41.124Z,69.59
2018-06-23T02:37:41.177Z,68.67
2018-06-23T02:38:41.128Z,68.00
2018-06-23T02:39:41.157Z,68.76
2018-06-23T02:40:41.166Z,68.57
2018-06-23T02:41:41.180Z,68.86
2018-06-23T02:42:41.157Z,69.11
2018-06-23T02:43:41.141Z,69.59
2018-06-23T02:44:41.174Z,68.96
2018-06-23T02:45:41.175Z,69.15
2018-06-23T02:46:41.159Z,68.57
2018-06-23T02:47:41.148Z,68.29
2018-06-23T02:48:41.151Z,68.51
2018-06-23T02:49:41.184Z,68.29
2018-06-23T02:50:41.147Z,68.67
2018-06-23T02:51:41.170Z,68.76
2018-06-23T02:52:41.164Z,68.67
2018-06-23T02:53:41.156Z,68.32
2018-06-23T02:54:41.208Z,68.29
2018-06-23T02:55:41.214Z,68.67
2018-06-23T02:56:41.161Z,68.67
2018-06-23T02:57:41.180Z,68.86
2018-06-23T02:58:41.176Z,68.48
2018-06-23T02:59:41.168Z,68.57
2018-06-23T03:00:41.166Z,68.48
2018-06-23T03:01:41.231Z,67.94
2018-06-23T03:02:41.179Z,67.55
2018-06-23T03:03:41.231Z,67.94
2018-06-23T03:04:41.173Z,67.36
2018-06-23T03:05:41.179Z,67.65
2018-06-23T03:06:41.217Z,68.19
2018-06-23T03:07:41.216Z,68.00
2018-06-23T03:08:41.219Z,67.43
2018-06-23T03:09:41.228Z,68.29
2018-06-23T03:10:41.188Z,68.29
2018-06-23T03:11:41.184Z,68.54
2018-06-23T03:12:41.200Z,69.53
2018-06-23T03:13:41.187Z,68.96
2018-06-23T03:14:41.192Z,69.87
2018-06-23T03:15:41.190Z,69.78
2018-06-23T03:16:41.193Z,69.62
2018-06-23T03:17:41.243Z,68.57
2018-06-23T03:18:41.197Z,68.76
2018-06-23T03:19:41.251Z,69.02
2018-06-23T03:20:41.208Z,68.67
2018-06-23T03:21:41.268Z,68.76
2018-06-23T03:22:41.288Z,68.19
2018-06-23T03:23:41.243Z,68.38
2018-06-23T03:24:42.837Z,68.57
2018-06-23T03:25:41.216Z,68.96
2018-06-23T03:26:41.252Z,68.29
2018-06-23T03:27:41.216Z,68.48
2018-06-23T03:28:41.262Z,68.10
2018-06-23T03:29:41.240Z,69.97
2018-06-23T03:30:41.301Z,69.05
2018-06-23T03:31:41.285Z,69.05
2018-06-23T03:32:41.224Z,69.24
2018-06-23T03:33:41.226Z,69.59
2018-06-23T03:34:41.308Z,69.82
2018-06-23T03:35:41.291Z,68.86
2018-06-23T03:36:41.226Z,69.53
2018-06-23T03:37:41.273Z,69.72
2018-06-23T03:38:41.291Z,68.67
2018-06-23T03:39:41.244Z,69.05
2018-06-23T03:40:41.238Z,69.24
2018-06-23T03:41:41.273Z,68.61
2018-06-23T03:42:41.285Z,68.86
2018-06-23T03:43:41.353Z,68.70
2018-06-23T03:44:41.278Z,68.38
2018-06-23T03:45:41.301Z,69.34
2018-06-23T03:46:41.246Z,69.05
2018-06-23T03:47:41.277Z,68.41
2018-06-23T03:48:41.322Z,67.55
2018-06-23T03:49:41.290Z,68.48
2018-06-23T03:50:41.297Z,68.51
2018-06-23T03:51:41.284Z,68.48
2018-06-23T03:52:41.263Z,68.41
2018-06-23T03:53:41.255Z,69.15
2018-06-23T03:54:41.305Z,68.76
2018-06-23T03:55:41.261Z,69.43
2018-06-23T03:56:41.283Z,68.48
2018-06-23T03:57:41.297Z,69.09
2018-06-23T03:58:41.288Z,68.38
2018-06-23T03:59:41.337Z,69.15
2018-06-23T04:00:41.279Z,70.39
2018-06-23T04:01:41.271Z,69.91
2018-06-23T04:02:41.319Z,70.10
2018-06-23T04:03:41.276Z,69.15
2018-06-23T04:04:41.279Z,68.99
2018-06-23T04:05:41.350Z,68.41
2018-06-23T04:06:41.292Z,68.51
2018-06-23T04:07:41.282Z,68.61
2018-06-23T04:08:41.327Z,68.96
2018-06-23T04:09:41.292Z,69.18
2018-06-23T04:10:41.285Z,68.61
2018-06-23T04:11:41.287Z,68.32
2018-06-23T04:12:41.332Z,69.09
2018-06-23T04:13:41.290Z,68.61
2018-06-23T04:14:41.335Z,68.80
2018-06-23T04:15:41.362Z,69.15
2018-06-23T04:16:41.318Z,68.90
2018-06-23T04:17:41.340Z,68.70
2018-06-23T04:18:41.331Z,68.51
2018-06-23T04:19:41.353Z,68.70
2018-06-23T04:20:41.320Z,69.27
2018-06-23T04:21:41.303Z,69.09
2018-06-23T04:22:41.346Z,69.05
2018-06-23T04:23:41.312Z,69.95
2018-06-23T04:24:41.324Z,68.90
2018-06-23T04:25:41.314Z,68.23
2018-06-23T04:26:41.320Z,68.51
2018-06-23T04:27:41.344Z,68.13
2018-06-23T04:28:41.376Z,69.09
2018-06-23T04:29:41.374Z,70.04
2018-06-23T04:30:41.327Z,68.61
2018-06-23T04:31:41.334Z,68.61
2018-06-23T04:32:41.444Z,69.09
2018-06-23T04:33:41.368Z,69.82
2018-06-23T04:34:41.377Z,69.37
2018-06-23T04:35:41.406Z,69.62
2018-06-23T04:36:41.384Z,70.01
2018-06-23T04:37:41.338Z,69.76
2018-06-23T04:38:41.382Z,69.47
2018-06-23T04:39:41.376Z,68.80
2018-06-23T04:40:41.372Z,68.70
2018-06-23T04:41:41.389Z,68.41
2018-06-23T04:42:41.407Z,68.61
2018-06-23T04:43:41.361Z,68.90
2018-06-23T04:44:41.402Z,68.90
2018-06-23T04:45:41.429Z,68.51
2018-06-23T04:46:41.356Z,68.99
2018-06-23T04:47:41.392Z,69.56
2018-06-23T04:48:41.420Z,70.01
2018-06-23T04:49:41.389Z,70.23
2018-06-23T04:50:41.401Z,69.47
2018-06-23T04:51:41.401Z,69.85
2018-06-23T04:52:41.361Z,70.71
2018-06-23T04:53:41.372Z,69.66
2018-06-23T04:54:41.426Z,69.37
2018-06-23T04:55:41.390Z,68.61
2018-06-23T04:56:41.373Z,69.85
2018-06-23T04:57:41.398Z,69.66
2018-06-23T04:58:41.372Z,69.31
2018-06-23T04:59:41.379Z,68.70
2018-06-23T05:00:41.383Z,69.66
2018-06-23T05:01:41.385Z,70.23
2018-06-23T05:02:41.450Z,70.04
2018-06-23T05:03:41.457Z,69.60
2018-06-23T05:04:41.442Z,69.21
2018-06-23T05:05:41.403Z,69.95
2018-06-23T05:06:41.429Z,69.76
2018-06-23T05:07:41.397Z,69.95
2018-06-23T05:08:41.397Z,71.19
2018-06-23T05:09:41.397Z,70.61
2018-06-23T05:10:41.410Z,70.81
2018-06-23T05:11:41.398Z,71.09
2018-06-23T05:12:41.469Z,71.00
2018-06-23T05:13:41.428Z,70.14
2018-06-23T05:14:41.408Z,70.52
2018-06-23T05:15:41.479Z,70.52
2018-06-23T05:16:41.461Z,70.81
2018-06-23T05:17:41.475Z,70.81
2018-06-23T05:18:41.440Z,70.17
2018-06-23T05:19:41.428Z,70.56
2018-06-23T05:20:41.448Z,69.89
2018-06-23T05:21:41.435Z,70.17
2018-06-23T05:22:41.436Z,69.98
2018-06-23T05:23:41.428Z,69.89
2018-06-23T05:24:41.481Z,69.79
2018-06-23T05:25:41.449Z,69.79
2018-06-23T05:26:41.435Z,69.79
2018-06-23T05:27:41.492Z,68.74
2018-06-23T05:28:41.479Z,69.25
2018-06-23T05:29:41.437Z,68.64
2018-06-23T05:30:41.489Z,69.25
2018-06-23T05:31:41.528Z,68.96
2018-06-23T05:32:41.447Z,69.25
2018-06-23T05:33:41.452Z,70.30
2018-06-23T05:34:41.478Z,69.35
2018-06-23T05:35:41.516Z,68.71
2018-06-23T05:36:41.458Z,67.66
2018-06-23T05:37:41.541Z,67.56
2018-06-23T05:38:41.495Z,68.13
2018-06-23T05:39:41.517Z,68.58
2018-06-23T05:40:41.463Z,69.09
2018-06-23T05:41:41.481Z,68.62
2018-06-23T05:42:41.505Z,69.35
2018-06-23T05:43:41.501Z,69.29
2018-06-23T05:44:41.504Z,68.52
2018-06-23T05:45:41.481Z,68.80
2018-06-23T05:46:41.488Z,68.62
2018-06-23T05:47:41.490Z,68.52
2018-06-23T05:48:41.531Z,68.62
2018-06-23T05:49:41.488Z,68.62
2018-06-23T05:50:41.527Z,68.42
2018-06-23T05:51:41.529Z,68.71
2018-06-23T05:52:41.567Z,67.94
2018-06-23T05:53:41.508Z,68.42
2018-06-23T05:54:41.515Z,67.94
2018-06-23T05:55:41.509Z,66.99
2018-06-23T05:56:41.580Z,67.76
2018-06-23T05:57:41.519Z,67.11
2018-06-23T05:58:41.512Z,67.02
2018-06-23T05:59:41.591Z,67.56
2018-06-23T06:00:41.790Z,68.33
2018-06-23T06:01:41.545Z,67.02
2018-06-23T06:02:41.586Z,66.74
2018-06-23T06:03:41.603Z,66.93
2018-06-23T06:04:41.599Z,67.11
2018-06-23T06:05:41.533Z,67.02
2018-06-23T06:06:41.579Z,66.54
2018-06-23T06:07:41.862Z,67.02
2018-06-23T06:08:41.587Z,66.74
2018-06-23T06:09:41.588Z,65.97
2018-06-23T06:10:41.549Z,67.02
2018-06-23T06:11:41.645Z,66.64
2018-06-23T06:12:41.588Z,65.78
2018-06-23T06:13:41.561Z,65.58
2018-06-23T06:14:41.787Z,65.78
2018-06-23T06:15:41.570Z,65.58
2018-06-23T06:16:41.678Z,65.20
2018-06-23T06:17:41.577Z,65.20
2018-06-23T06:18:41.689Z,64.63
2018-06-23T06:19:41.724Z,65.88
2018-06-23T06:20:41.703Z,66.00
2018-06-23T06:21:41.614Z,66.00
2018-06-23T06:22:41.620Z,65.91
2018-06-23T06:23:41.633Z,65.62
2018-06-23T06:24:41.612Z,65.71
2018-06-23T06:25:41.615Z,66.00
2018-06-23T06:26:41.608Z,65.81
2018-06-23T06:27:41.622Z,65.33
2018-06-23T06:28:41.920Z,65.71
2018-06-23T06:29:41.683Z,65.42
2018-06-23T06:30:41.654Z,65.23
2018-06-23T06:31:41.656Z,63.89
2018-06-23T06:32:41.622Z,64.47
2018-06-23T06:33:41.628Z,64.47
2018-06-23T06:34:41.761Z,63.99
2018-06-23T06:35:41.682Z,64.47
2018-06-23T06:36:41.679Z,64.95
2018-06-23T06:37:41.704Z,65.71
2018-06-23T06:38:41.699Z,65.62
2018-06-23T06:39:41.700Z,64.69
2018-06-23T06:40:41.657Z,64.69
2018-06-23T06:41:41.704Z,64.79
2018-06-23T06:42:41.684Z,64.85
2018-06-23T06:43:41.686Z,64.66
2018-06-23T06:44:41.779Z,65.14
2018-06-23T06:45:41.738Z,66.00
2018-06-23T06:46:41.677Z,65.42
2018-06-23T06:47:41.678Z,63.70
2018-06-23T06:48:41.717Z,63.42
2018-06-23T06:49:41.679Z,63.32
2018-06-23T06:50:41.694Z,63.22
2018-06-23T06:51:41.689Z,63.99
2018-06-23T06:52:41.738Z,64.47
2018-06-23T06:53:41.743Z,64.18
2018-06-23T06:54:41.729Z,63.89
2018-06-23T06:55:41.784Z,64.18
2018-06-23T06:56:41.711Z,64.37
2018-06-23T06:57:41.758Z,63.73
2018-06-23T06:58:41.730Z,63.73
2018-06-23T06:59:41.721Z,63.06
2018-06-23T07:00:41.725Z,62.01
2018-06-23T07:01:41.732Z,62.01
2018-06-23T07:02:41.770Z,62.01
2018-06-23T07:03:41.742Z,62.10
2018-06-23T07:04:41.744Z,61.72
2018-06-23T07:05:41.789Z,62.01
2018-06-23T07:06:41.771Z,61.91
2018-06-23T07:07:41.766Z,61.34
2018-06-23T07:08:41.874Z,61.63
2018-06-23T07:09:41.762Z,61.53
2018-06-23T07:10:41.770Z,62.13
2018-06-23T07:11:41.779Z,61.72
2018-06-23T07:12:41.777Z,61.63
2018-06-23T07:13:41.778Z,61.34
2018-06-23T07:14:41.781Z,61.34
2018-06-23T07:15:41.792Z,61.91
2018-06-23T07:16:41.792Z,61.82
2018-06-23T07:17:41.835Z,61.91
2018-06-23T07:18:41.797Z,62.10
2018-06-23T07:19:41.887Z,61.15
2018-06-23T07:20:41.808Z,61.34
2018-06-23T07:21:41.849Z,61.24
2018-06-23T07:22:41.851Z,61.53
2018-06-23T07:23:41.962Z,60.99
2018-06-23T07:24:41.837Z,60.79
2018-06-23T07:25:41.873Z,60.86
2018-06-23T07:26:41.957Z,59.83
2018-06-23T07:27:41.841Z,59.55
2018-06-23T07:28:42.066Z,60.70
2018-06-23T07:29:42.213Z,59.93
2018-06-23T07:30:41.991Z,60.60
2018-06-23T07:31:42.402Z,59.93
2018-06-23T07:32:41.872Z,58.59
2018-06-23T07:33:41.953Z,57.92
2018-06-23T07:34:41.941Z,57.75
2018-06-23T07:35:41.920Z,57.75
2018-06-23T07:36:42.030Z,58.30
2018-06-23T07:37:41.921Z,57.85
2018-06-23T07:38:41.892Z,58.14
2018-06-23T07:39:42.080Z,58.23
2018-06-23T07:40:41.945Z,59.77
2018-06-23T07:41:41.969Z,59.58
2018-06-23T07:42:41.969Z,58.71
2018-06-23T07:43:42.001Z,57.65
2018-06-23T07:44:41.984Z,58.52
2018-06-23T07:45:41.932Z,57.85
2018-06-23T07:46:41.983Z,58.20
2018-06-23T07:47:41.958Z,58.30
2018-06-23T07:48:41.963Z,58.78
2018-06-23T07:49:41.942Z,59.45
2018-06-23T07:50:42.005Z,59.19
2018-06-23T07:51:41.942Z,58.33
2018-06-23T07:52:41.946Z,58.14
2018-06-23T07:53:42.043Z,58.74
2018-06-23T07:54:41.955Z,58.36
2018-06-23T07:55:42.082Z,57.11
2018-06-23T07:56:41.966Z,57.40
2018-06-23T07:57:42.139Z,58.07
2018-06-23T07:58:42.176Z,56.63
2018-06-23T07:59:42.142Z,56.41
2018-06-23T08:00:42.054Z,56.44
2018-06-23T08:01:42.262Z,57.04
2018-06-23T08:02:42.031Z,56.85
2018-06-23T08:03:42.129Z,56.92
2018-06-23T08:04:42.082Z,57.50
2018-06-23T08:05:42.051Z,58.17
2018-06-23T08:06:42.090Z,57.59
2018-06-23T08:07:42.071Z,57.56
2018-06-23T08:08:42.115Z,58.04
2018-06-23T08:09:42.260Z,57.28
2018-06-23T08:10:42.127Z,56.73
2018-06-23T08:11:42.202Z,56.44
2018-06-23T08:12:42.096Z,57.01
2018-06-23T08:13:42.284Z,55.96
2018-06-23T08:14:42.180Z,55.99
2018-06-23T08:15:42.107Z,55.99
2018-06-23T08:16:42.270Z,56.73
2018-06-23T08:17:42.196Z,56.82
2018-06-23T08:18:42.078Z,56.63
2018-06-23T08:19:42.088Z,55.22
2018-06-23T08:20:42.181Z,54.74
2018-06-23T08:21:42.220Z,54.35
2018-06-23T08:22:42.163Z,53.20
2018-06-23T08:23:42.101Z,54.06
2018-06-23T08:24:42.168Z,53.78
2018-06-23T08:25:42.201Z,53.13
2018-06-23T08:26:42.436Z,53.32
2018-06-23T08:27:42.156Z,53.70
2018-06-23T08:28:42.250Z,53.61
2018-06-23T08:29:42.228Z,55.73
2018-06-23T08:30:42.215Z,55.34
2018-06-23T08:31:42.215Z,54.83
2018-06-23T08:32:42.292Z,54.25
2018-06-23T08:33:42.178Z,53.27
2018-06-23T08:34:42.200Z,54.21
2018-06-23T08:35:42.211Z,54.88
2018-06-23T08:36:42.189Z,55.19
2018-06-23T08:37:42.284Z,55.19
2018-06-23T08:38:42.183Z,55.67
2018-06-23T08:39:42.189Z,54.93
2018-06-23T08:40:42.251Z,54.80
2018-06-23T08:41:42.281Z,55.02
2018-06-23T08:42:42.399Z,54.93
2018-06-23T08:43:43.187Z,54.25
2018-06-23T08:44:42.308Z,54.74
2018-06-23T08:45:42.256Z,54.80
2018-06-23T08:46:42.661Z,55.22
2018-06-23T08:47:42.696Z,55.79
2018-06-23T08:48:43.195Z,55.05
2018-06-23T08:49:42.285Z,54.28
2018-06-23T08:50:42.316Z,54.57
2018-06-23T08:51:42.310Z,53.80
2018-06-23T08:52:42.809Z,54.57
2018-06-23T08:53:42.320Z,55.15
2018-06-23T08:54:42.423Z,54.96
2018-06-23T08:55:42.957Z,54.96
2018-06-23T08:56:42.351Z,54.96
2018-06-23T08:57:42.288Z,55.15
2018-06-23T08:58:42.577Z,54.00
2018-06-23T08:59:42.562Z,53.42
2018-06-23T09:00:42.384Z,52.55
2018-06-23T09:01:42.482Z,52.48
2018-06-23T09:02:42.489Z,52.48
2018-06-23T09:03:42.846Z,52.68
2018-06-23T09:04:42.408Z,53.03
2018-06-23T09:05:42.395Z,52.00
2018-06-23T09:06:42.767Z,52.20
2018-06-23T09:07:42.500Z,52.58
2018-06-23T09:08:42.407Z,51.62
2018-06-23T09:09:42.416Z,50.56
2018-06-23T09:10:42.481Z,50.95
2018-06-23T09:11:42.367Z,53.45
2018-06-23T09:12:42.735Z,50.76
2018-06-23T09:13:42.477Z,50.95
2018-06-23T09:14:42.544Z,52.20
2018-06-23T09:15:42.443Z,51.62
2018-06-23T09:16:42.496Z,52.39
2018-06-23T09:17:42.475Z,51.81
2018-06-23T09:18:42.415Z,52.39
2018-06-23T09:19:42.547Z,52.20
2018-06-23T09:20:42.453Z,52.10
2018-06-23T09:21:42.437Z,52.22
2018-06-23T09:22:42.543Z,50.95
2018-06-23T09:23:42.499Z,51.72
2018-06-23T09:24:42.460Z,51.81
2018-06-23T09:25:42.496Z,51.23
2018-06-23T09:26:42.463Z,51.59
2018-06-23T09:27:42.713Z,51.04
2018-06-23T09:28:42.607Z,51.81
2018-06-23T09:29:42.963Z,51.98
2018-06-23T09:30:42.530Z,53.13
2018-06-23T09:31:42.495Z,52.17
2018-06-23T09:32:42.501Z,51.69
2018-06-23T09:33:42.543Z,50.03
2018-06-23T09:34:42.517Z,50.87
2018-06-23T09:35:42.686Z,51.73
2018-06-23T09:36:42.624Z,51.73
2018-06-23T09:37:42.531Z,51.83
2018-06-23T09:38:42.548Z,51.86
2018-06-23T09:39:42.660Z,53.30
2018-06-23T09:40:42.626Z,53.58
2018-06-23T09:41:42.821Z,53.11
2018-06-23T09:42:42.664Z,53.52
2018-06-23T09:43:42.827Z,52.55
2018-06-23T09:44:42.588Z,52.17
2018-06-23T09:45:42.580Z,51.02
2018-06-23T09:46:42.642Z,52.94
2018-06-23T09:47:42.636Z,52.05
2018-06-23T09:48:42.781Z,50.82
2018-06-23T09:49:42.721Z,50.25
2018-06-23T09:50:42.611Z,50.92
2018-06-23T09:51:42.776Z,50.82
2018-06-23T09:52:42.632Z,50.82
2018-06-23T09:53:42.625Z,50.73
2018-06-23T09:54:42.622Z,51.69
2018-06-23T09:55:42.769Z,51.69
2018-06-23T09:56:42.650Z,52.05
2018-06-23T09:57:42.648Z,51.88
2018-06-23T09:58:42.741Z,51.57
2018-06-23T09:59:42.731Z,52.12
2018-06-23T10:00:42.853Z,52.22
2018-06-23T10:01:42.671Z,50.87
2018-06-23T10:02:42.713Z,52.31
2018-06-23T10:03:42.939Z,51.06
2018-06-23T10:04:42.961Z,49.72
2018-06-23T10:05:42.796Z,49.17
2018-06-23T10:06:42.702Z,50.99
2018-06-23T10:07:42.723Z,50.25
2018-06-23T10:08:42.762Z,50.82
2018-06-23T10:09:43.408Z,49.89
2018-06-23T10:10:42.729Z,49.41
2018-06-23T10:11:43.273Z,48.45
2018-06-23T10:12:42.973Z,47.10
2018-06-23T10:13:42.766Z,46.53
2018-06-23T10:14:42.766Z,47.70
2018-06-23T10:15:43.035Z,45.56
2018-06-23T10:16:42.826Z,46.33
2018-06-23T10:17:42.804Z,48.35
2018-06-23T10:18:43.000Z,50.18
2018-06-23T10:19:42.977Z,50.27
2018-06-23T10:20:42.775Z,49.67
2018-06-23T10:21:42.837Z,49.48
2018-06-23T10:22:42.900Z,49.19
2018-06-23T10:23:43.204Z,49.79
2018-06-23T10:24:42.837Z,49.89
2018-06-23T10:25:42.827Z,49.67
2018-06-23T10:26:43.037Z,49.99
2018-06-23T10:27:42.816Z,49.77
2018-06-23T10:28:42.832Z,49.19
2018-06-23T10:29:42.830Z,49.51
2018-06-23T10:30:42.952Z,49.60
2018-06-23T10:31:42.908Z,49.31
2018-06-23T10:32:42.849Z,48.28
2018-06-23T10:33:42.863Z,45.87
2018-06-23T10:34:42.905Z,45.39
2018-06-23T10:35:42.957Z,44.55
2018-06-23T10:36:42.902Z,44.55
2018-06-23T10:37:42.979Z,46.47
2018-06-23T10:38:43.007Z,44.86
2018-06-23T10:39:42.972Z,45.15
2018-06-23T10:40:43.255Z,43.97
2018-06-23T10:41:43.047Z,44.09
2018-06-23T10:42:43.115Z,44.35
2018-06-23T10:43:43.031Z,44.72
2018-06-23T10:44:42.988Z,46.36
2018-06-23T10:45:42.928Z,47.61
2018-06-23T10:46:42.972Z,47.03
2018-06-23T10:47:43.007Z,46.64
2018-06-23T10:48:42.970Z,47.03
2018-06-23T10:49:43.055Z,47.39
2018-06-23T10:50:43.098Z,48.76
2018-06-23T10:51:42.974Z,47.89
2018-06-23T10:52:43.114Z,48.47
2018-06-23T10:53:43.040Z,49.24
2018-06-23T10:54:43.104Z,49.51
2018-06-23T10:55:43.052Z,49.89
2018-06-23T10:56:43.032Z,49.82
2018-06-23T10:57:43.172Z,48.76
2018-06-23T10:58:43.015Z,48.85
2018-06-23T10:59:43.068Z,48.18
2018-06-23T11:00:43.186Z,49.05
2018-06-23T11:01:43.056Z,49.02
2018-06-23T11:02:43.133Z,49.12
2018-06-23T11:03:43.105Z,49.99
2018-06-23T11:04:43.223Z,49.60
2018-06-23T11:05:43.076Z,49.89
2018-06-23T11:06:43.210Z,50.18
2018-06-23T11:07:43.084Z,50.27
2018-06-23T11:08:43.476Z,51.17
2018-06-23T11:09:43.174Z,51.04
2018-06-23T11:10:43.285Z,50.56
2018-06-23T11:11:43.172Z,49.63
2018-06-23T11:12:43.184Z,48.40
2018-06-23T11:13:43.186Z,48.21
2018-06-23T11:14:43.259Z,47.99
2018-06-23T11:15:43.240Z,48.47
2018-06-23T11:16:43.194Z,48.08
2018-06-23T11:17:43.174Z,47.44
2018-06-23T11:18:43.146Z,48.38
2018-06-23T11:19:43.158Z,49.94
2018-06-23T11:20:43.205Z,50.40
2018-06-23T11:21:43.272Z,50.90
2018-06-23T11:22:43.221Z,50.04
2018-06-23T11:23:43.256Z,48.49
2018-06-23T11:24:43.192Z,48.35
2018-06-23T11:25:43.385Z,49.69
2018-06-23T11:26:43.244Z,49.89
2018-06-23T11:27:43.206Z,49.99
2018-06-23T11:28:43.385Z,49.79
2018-06-23T11:29:43.252Z,50.87
2018-06-23T11:30:43.326Z,49.53
2018-06-23T11:31:43.243Z,49.63
2018-06-23T11:32:43.534Z,48.21
2018-06-23T11:33:43.375Z,48.38
2018-06-23T11:34:43.304Z,47.34
2018-06-23T11:35:43.403Z,46.77
2018-06-23T11:36:43.262Z,46.50
2018-06-23T11:37:43.271Z,45.99
2018-06-23T11:38:43.460Z,45.90
2018-06-23T11:39:43.387Z,46.11
2018-06-23T11:40:43.441Z,44.67
2018-06-23T11:41:43.382Z,43.71
2018-06-23T11:42:43.404Z,43.59
2018-06-23T11:43:43.361Z,43.59
2018-06-23T11:44:43.401Z,43.78
2018-06-23T11:45:43.543Z,46.09
2018-06-23T11:46:43.458Z,45.44
2018-06-23T11:47:43.401Z,44.96
2018-06-23T11:48:43.425Z,45.07
2018-06-23T11:49:43.372Z,43.82
2018-06-23T11:50:43.364Z,44.38
2018-06-23T11:51:43.410Z,45.44
2018-06-23T11:52:43.374Z,45.15
2018-06-23T11:53:43.406Z,44.19
2018-06-23T11:54:43.410Z,45.05
2018-06-23T11:55:43.404Z,45.25
2018-06-23T11:56:43.612Z,45.44
2018-06-23T11:57:43.461Z,47.19
2018-06-23T11:58:43.438Z,44.11
2018-06-23T11:59:43.453Z,43.34
2018-06-23T12:00:43.475Z,43.99
2018-06-23T12:01:43.782Z,45.63
2018-06-23T12:02:43.542Z,43.92
2018-06-23T12:03:43.455Z,44.38
2018-06-23T12:04:43.504Z,45.53
2018-06-23T12:05:43.598Z,44.89
2018-06-23T12:06:43.523Z,43.80
2018-06-23T12:07:43.510Z,44.31
2018-06-23T12:08:43.534Z,44.59
2018-06-23T12:09:43.527Z,44.21
2018-06-23T12:10:43.532Z,44.04
2018-06-23T12:11:43.594Z,43.63
2018-06-23T12:12:43.606Z,42.93
2018-06-23T12:13:43.723Z,42.76
2018-06-23T12:14:43.592Z,42.09
2018-06-23T12:15:43.545Z,41.61
2018-06-23T12:16:43.690Z,43.15
2018-06-23T12:17:43.552Z,43.54
2018-06-23T12:18:43.594Z,42.57
2018-06-23T12:19:43.589Z,41.32
2018-06-23T12:20:43.602Z,39.99
2018-06-23T12:21:43.617Z,38.83
2018-06-23T12:22:43.645Z,39.51
2018-06-23T12:23:43.601Z,40.66
2018-06-23T12:24:43.675Z,41.53
2018-06-23T12:25:43.628Z,41.24
2018-06-23T12:26:43.682Z,42.36
2018-06-23T12:27:43.648Z,43.82
2018-06-23T12:28:43.670Z,42.96
2018-06-23T12:29:43.655Z,42.09
2018-06-23T12:30:43.750Z,41.51
2018-06-23T12:31:43.720Z,39.89
2018-06-23T12:32:43.705Z,40.55
2018-06-23T12:33:43.671Z,40.55
2018-06-23T12:34:43.681Z,40.74
2018-06-23T12:35:43.793Z,41.05
2018-06-23T12:36:43.715Z,40.86
2018-06-23T12:37:43.724Z,41.36
2018-06-23T12:38:43.736Z,42.02
2018-06-23T12:39:43.756Z,41.14
2018-06-23T12:40:43.780Z,41.34
2018-06-23T12:41:43.914Z,42.49
2018-06-23T12:42:43.881Z,41.63
2018-06-23T12:43:43.870Z,41.05
2018-06-23T12:44:43.869Z,42.13
2018-06-23T12:45:43.970Z,42.80
2018-06-23T12:46:43.812Z,40.88
2018-06-23T12:47:43.837Z,40.01
2018-06-23T12:48:43.952Z,40.88
2018-06-23T12:49:43.891Z,40.20
2018-06-23T12:50:43.802Z,40.57
2018-06-23T12:51:43.909Z,40.28
2018-06-23T12:52:43.816Z,40.88